sensor_id;sensor_type;location;lat;lon;timestamp;P1;durP1;ratioP1;P2;durP2;ratioP2
21741;SDS011;11033;47.490;11.116;2023-08-01T00:02:10;7.10;;;6.50;;
21741;SDS011;11033;47.490;11.116;2023-08-01T00:04:36;9.38;;;7.28;;
21741;SDS011;11033;47.490;11.116;2023-08-01T00:07:01;8.50;;;7.13;;
21741;SDS011;11033;47.490;11.116;2023-08-01T00:09:26;8.17;;;7.37;;
21741;SDS011;11033;47.490;11.116;2023-08-01T00:11:51;7.73;;;7.03;;
21741;SDS011;11033;47.490;11.116;2023-08-01T00:14:16;7.93;;;7.13;;
21741;SDS011;11033;47.490;11.116;2023-08-01T00:16:42;9.40;;;6.82;;
21741;SDS011;11033;47.490;11.116;2023-08-01T00:19:07;11.83;;;7.03;;
21741;SDS011;11033;47.490;11.116;2023-08-01T00:21:32;9.67;;;6.97;;
21741;SDS011;11033;47.490;11.116;2023-08-01T00:23:58;8.98;;;7.28;;
21741;SDS011;11033;47.490;11.116;2023-08-01T00:26:23;8.03;;;6.90;;
21741;SDS011;11033;47.490;11.116;2023-08-01T00:28:48;7.50;;;6.80;;
21741;SDS011;11033;47.490;11.116;2023-08-01T00:31:14;7.38;;;6.68;;
21741;SDS011;11033;47.490;11.116;2023-08-01T00:33:39;7.13;;;6.63;;
21741;SDS011;11033;47.490;11.116;2023-08-01T00:36:04;10.63;;;6.80;;
21741;SDS011;11033;47.490;11.116;2023-08-01T00:38:34;8.57;;;6.32;;
21741;SDS011;11033;47.490;11.116;2023-08-01T00:40:59;7.83;;;7.10;;
21741;SDS011;11033;47.490;11.116;2023-08-01T00:43:24;7.03;;;6.43;;
21741;SDS011;11033;47.490;11.116;2023-08-01T00:45:49;7.77;;;7.13;;
21741;SDS011;11033;47.490;11.116;2023-08-01T00:48:15;7.80;;;6.97;;
21741;SDS011;11033;47.490;11.116;2023-08-01T00:50:40;10.15;;;7.57;;
21741;SDS011;11033;47.490;11.116;2023-08-01T00:53:05;8.90;;;7.27;;
21741;SDS011;11033;47.490;11.116;2023-08-01T00:55:31;8.13;;;7.38;;
21741;SDS011;11033;47.490;11.116;2023-08-01T00:57:57;7.90;;;7.10;;
21741;SDS011;11033;47.490;11.116;2023-08-01T01:00:22;8.23;;;7.17;;
21741;SDS011;11033;47.490;11.116;2023-08-01T01:02:47;7.67;;;6.70;;
21741;SDS011;11033;47.490;11.116;2023-08-01T01:05:13;7.97;;;7.17;;
21741;SDS011;11033;47.490;11.116;2023-08-01T01:07:39;7.40;;;6.80;;
21741;SDS011;11033;47.490;11.116;2023-08-01T01:10:04;7.30;;;6.60;;
21741;SDS011;11033;47.490;11.116;2023-08-01T01:12:29;8.05;;;7.35;;
21741;SDS011;11033;47.490;11.116;2023-08-01T01:14:54;7.47;;;6.83;;
21741;SDS011;11033;47.490;11.116;2023-08-01T01:17:19;7.67;;;6.90;;
21741;SDS011;11033;47.490;11.116;2023-08-01T01:19:45;9.43;;;7.17;;
21741;SDS011;11033;47.490;11.116;2023-08-01T01:22:10;7.77;;;7.00;;
21741;SDS011;11033;47.490;11.116;2023-08-01T01:24:35;10.23;;;7.32;;
21741;SDS011;11033;47.490;11.116;2023-08-01T01:27:02;7.40;;;6.70;;
21741;SDS011;11033;47.490;11.116;2023-08-01T01:29:29;13.20;;;7.13;;
21741;SDS011;11033;47.490;11.116;2023-08-01T01:31:54;7.63;;;6.93;;
21741;SDS011;11033;47.490;11.116;2023-08-01T01:34:20;8.50;;;7.18;;
21741;SDS011;11033;47.490;11.116;2023-08-01T01:36:45;10.63;;;6.95;;
21741;SDS011;11033;47.490;11.116;2023-08-01T01:39:10;7.57;;;6.90;;
21741;SDS011;11033;47.490;11.116;2023-08-01T01:41:35;9.53;;;7.27;;
21741;SDS011;11033;47.490;11.116;2023-08-01T01:44:01;7.97;;;6.80;;
21741;SDS011;11033;47.490;11.116;2023-08-01T01:46:26;9.00;;;7.23;;
21741;SDS011;11033;47.490;11.116;2023-08-01T01:48:51;9.60;;;6.50;;
21741;SDS011;11033;47.490;11.116;2023-08-01T01:51:16;7.30;;;6.60;;
21741;SDS011;11033;47.490;11.116;2023-08-01T01:53:41;11.60;;;6.93;;
21741;SDS011;11033;47.490;11.116;2023-08-01T01:56:07;7.37;;;6.67;;
21741;SDS011;11033;47.490;11.116;2023-08-01T01:58:32;8.25;;;6.80;;
21741;SDS011;11033;47.490;11.116;2023-08-01T02:00:57;7.30;;;6.60;;
21741;SDS011;11033;47.490;11.116;2023-08-01T02:03:22;7.60;;;6.83;;
21741;SDS011;11033;47.490;11.116;2023-08-01T02:05:47;7.60;;;6.80;;
21741;SDS011;11033;47.490;11.116;2023-08-01T02:08:13;7.05;;;6.35;;
21741;SDS011;11033;47.490;11.116;2023-08-01T02:10:38;7.13;;;6.20;;
21741;SDS011;11033;47.490;11.116;2023-08-01T02:13:03;8.37;;;6.30;;
21741;SDS011;11033;47.490;11.116;2023-08-01T02:15:28;6.83;;;6.23;;
21741;SDS011;11033;47.490;11.116;2023-08-01T02:17:54;7.17;;;6.47;;
21741;SDS011;11033;47.490;11.116;2023-08-01T02:20:20;8.23;;;6.55;;
21741;SDS011;11033;47.490;11.116;2023-08-01T02:22:45;8.43;;;7.00;;
21741;SDS011;11033;47.490;11.116;2023-08-01T02:25:10;8.50;;;7.70;;
21741;SDS011;11033;47.490;11.116;2023-08-01T02:27:36;8.73;;;6.55;;
21741;SDS011;11033;47.490;11.116;2023-08-01T02:30:01;7.23;;;6.43;;
21741;SDS011;11033;47.490;11.116;2023-08-01T02:32:27;7.18;;;6.47;;
21741;SDS011;11033;47.490;11.116;2023-08-01T02:34:52;6.83;;;5.60;;
21741;SDS011;11033;47.490;11.116;2023-08-01T02:37:17;7.33;;;6.70;;
21741;SDS011;11033;47.490;11.116;2023-08-01T02:39:42;7.03;;;6.33;;
21741;SDS011;11033;47.490;11.116;2023-08-01T02:42:07;8.17;;;7.37;;
21741;SDS011;11033;47.490;11.116;2023-08-01T02:44:33;8.30;;;6.38;;
21741;SDS011;11033;47.490;11.116;2023-08-01T02:46:58;6.97;;;6.27;;
21741;SDS011;11033;47.490;11.116;2023-08-01T02:49:23;8.37;;;7.43;;
21741;SDS011;11033;47.490;11.116;2023-08-01T02:51:48;7.77;;;5.87;;
21741;SDS011;11033;47.490;11.116;2023-08-01T02:54:14;7.23;;;6.63;;
21741;SDS011;11033;47.490;11.116;2023-08-01T02:56:39;8.77;;;6.30;;
21741;SDS011;11033;47.490;11.116;2023-08-01T02:59:08;16.80;;;6.80;;
21741;SDS011;11033;47.490;11.116;2023-08-01T03:01:34;7.07;;;6.40;;
21741;SDS011;11033;47.490;11.116;2023-08-01T03:04:01;7.13;;;6.43;;
21741;SDS011;11033;47.490;11.116;2023-08-01T03:06:26;9.52;;;6.97;;
21741;SDS011;11033;47.490;11.116;2023-08-01T03:08:52;8.00;;;6.40;;
21741;SDS011;11033;47.490;11.116;2023-08-01T03:11:17;6.50;;;6.00;;
21741;SDS011;11033;47.490;11.116;2023-08-01T03:13:42;7.97;;;6.10;;
21741;SDS011;11033;47.490;11.116;2023-08-01T03:16:07;7.57;;;6.10;;
21741;SDS011;11033;47.490;11.116;2023-08-01T03:18:33;10.10;;;6.35;;
21741;SDS011;11033;47.490;11.116;2023-08-01T03:20:58;9.00;;;7.17;;
21741;SDS011;11033;47.490;11.116;2023-08-01T03:23:24;7.60;;;6.80;;
21741;SDS011;11033;47.490;11.116;2023-08-01T03:25:49;8.20;;;7.03;;
21741;SDS011;11033;47.490;11.116;2023-08-01T03:28:14;6.97;;;6.03;;
21741;SDS011;11033;47.490;11.116;2023-08-01T03:30:39;7.03;;;6.37;;
21741;SDS011;11033;47.490;11.116;2023-08-01T03:33:04;6.50;;;5.90;;
21741;SDS011;11033;47.490;11.116;2023-08-01T03:35:30;7.30;;;6.70;;
21741;SDS011;11033;47.490;11.116;2023-08-01T03:37:55;7.77;;;7.07;;
21741;SDS011;11033;47.490;11.116;2023-08-01T03:40:20;7.20;;;6.50;;
21741;SDS011;11033;47.490;11.116;2023-08-01T03:42:46;12.18;;;7.20;;
21741;SDS011;11033;47.490;11.116;2023-08-01T03:45:11;7.77;;;6.63;;
21741;SDS011;11033;47.490;11.116;2023-08-01T03:47:36;6.87;;;6.00;;
21741;SDS011;11033;47.490;11.116;2023-08-01T03:50:02;10.35;;;6.82;;
21741;SDS011;11033;47.490;11.116;2023-08-01T03:52:28;7.32;;;6.20;;
21741;SDS011;11033;47.490;11.116;2023-08-01T03:54:54;7.00;;;6.38;;
21741;SDS011;11033;47.490;11.116;2023-08-01T03:57:19;7.45;;;6.60;;
21741;SDS011;11033;47.490;11.116;2023-08-01T03:59:45;6.93;;;6.33;;
21741;SDS011;11033;47.490;11.116;2023-08-01T04:02:11;7.30;;;6.60;;
21741;SDS011;11033;47.490;11.116;2023-08-01T04:04:36;8.03;;;6.50;;
21741;SDS011;11033;47.490;11.116;2023-08-01T04:07:01;6.75;;;6.15;;
21741;SDS011;11033;47.490;11.116;2023-08-01T04:09:26;8.10;;;6.30;;
21741;SDS011;11033;47.490;11.116;2023-08-01T04:11:51;7.53;;;6.73;;
21741;SDS011;11033;47.490;11.116;2023-08-01T04:14:16;7.50;;;6.80;;
21741;SDS011;11033;47.490;11.116;2023-08-01T04:16:42;8.97;;;6.37;;
21741;SDS011;11033;47.490;11.116;2023-08-01T04:19:07;8.87;;;7.10;;
21741;SDS011;11033;47.490;11.116;2023-08-01T04:21:32;7.73;;;6.50;;
21741;SDS011;11033;47.490;11.116;2023-08-01T04:23:57;7.50;;;6.87;;
21741;SDS011;11033;47.490;11.116;2023-08-01T04:26:22;8.43;;;6.73;;
21741;SDS011;11033;47.490;11.116;2023-08-01T04:28:47;7.43;;;6.70;;
21741;SDS011;11033;47.490;11.116;2023-08-01T04:31:13;7.60;;;6.90;;
21741;SDS011;11033;47.490;11.116;2023-08-01T04:33:38;12.98;;;7.22;;
21741;SDS011;11033;47.490;11.116;2023-08-01T04:36:03;9.77;;;6.47;;
21741;SDS011;11033;47.490;11.116;2023-08-01T04:38:29;10.37;;;6.77;;
21741;SDS011;11033;47.490;11.116;2023-08-01T04:40:54;7.20;;;6.57;;
21741;SDS011;11033;47.490;11.116;2023-08-01T04:43:19;7.10;;;6.40;;
21741;SDS011;11033;47.490;11.116;2023-08-01T04:45:45;6.77;;;6.13;;
21741;SDS011;11033;47.490;11.116;2023-08-01T04:48:10;11.13;;;6.68;;
21741;SDS011;11033;47.490;11.116;2023-08-01T04:50:35;8.13;;;6.57;;
21741;SDS011;11033;47.490;11.116;2023-08-01T04:53:00;7.87;;;7.17;;
21741;SDS011;11033;47.490;11.116;2023-08-01T04:55:25;9.07;;;7.63;;
21741;SDS011;11033;47.490;11.116;2023-08-01T04:57:51;8.33;;;6.67;;
21741;SDS011;11033;47.490;11.116;2023-08-01T05:00:16;9.17;;;6.73;;
21741;SDS011;11033;47.490;11.116;2023-08-01T05:02:42;8.93;;;7.00;;
21741;SDS011;11033;47.490;11.116;2023-08-01T05:05:07;8.97;;;7.03;;
21741;SDS011;11033;47.490;11.116;2023-08-01T05:07:32;7.27;;;6.60;;
21741;SDS011;11033;47.490;11.116;2023-08-01T05:09:57;8.00;;;7.20;;
21741;SDS011;11033;47.490;11.116;2023-08-01T05:12:22;10.50;;;7.00;;
21741;SDS011;11033;47.490;11.116;2023-08-01T05:14:47;8.60;;;6.37;;
21741;SDS011;11033;47.490;11.116;2023-08-01T05:17:13;7.90;;;6.87;;
21741;SDS011;11033;47.490;11.116;2023-08-01T05:19:38;8.20;;;7.07;;
21741;SDS011;11033;47.490;11.116;2023-08-01T05:22:03;8.70;;;7.23;;
21741;SDS011;11033;47.490;11.116;2023-08-01T05:24:29;7.40;;;6.78;;
21741;SDS011;11033;47.490;11.116;2023-08-01T05:26:54;7.40;;;6.70;;
21741;SDS011;11033;47.490;11.116;2023-08-01T05:29:19;8.97;;;7.50;;
21741;SDS011;11033;47.490;11.116;2023-08-01T05:31:44;7.83;;;6.83;;
21741;SDS011;11033;47.490;11.116;2023-08-01T05:34:09;7.40;;;6.70;;
21741;SDS011;11033;47.490;11.116;2023-08-01T05:36:34;7.93;;;7.17;;
21741;SDS011;11033;47.490;11.116;2023-08-01T05:39:00;7.63;;;6.93;;
21741;SDS011;11033;47.490;11.116;2023-08-01T05:41:25;7.27;;;6.57;;
21741;SDS011;11033;47.490;11.116;2023-08-01T05:43:51;8.03;;;7.20;;
21741;SDS011;11033;47.490;11.116;2023-08-01T05:46:16;7.63;;;6.85;;
21741;SDS011;11033;47.490;11.116;2023-08-01T05:48:42;7.57;;;6.87;;
21741;SDS011;11033;47.490;11.116;2023-08-01T05:51:07;7.63;;;6.87;;
21741;SDS011;11033;47.490;11.116;2023-08-01T05:53:32;8.13;;;6.80;;
21741;SDS011;11033;47.490;11.116;2023-08-01T05:55:57;7.50;;;6.60;;
21741;SDS011;11033;47.490;11.116;2023-08-01T05:58:23;7.43;;;6.73;;
21741;SDS011;11033;47.490;11.116;2023-08-01T06:00:48;7.75;;;6.95;;
21741;SDS011;11033;47.490;11.116;2023-08-01T06:03:13;8.60;;;7.70;;
21741;SDS011;11033;47.490;11.116;2023-08-01T06:05:38;7.50;;;6.80;;
21741;SDS011;11033;47.490;11.116;2023-08-01T06:08:05;8.13;;;6.78;;
21741;SDS011;11033;47.490;11.116;2023-08-01T06:10:30;8.05;;;7.25;;
21741;SDS011;11033;47.490;11.116;2023-08-01T06:12:55;7.32;;;6.50;;
21741;SDS011;11033;47.490;11.116;2023-08-01T06:15:20;8.38;;;6.88;;
21741;SDS011;11033;47.490;11.116;2023-08-01T06:17:46;8.32;;;7.40;;
21741;SDS011;11033;47.490;11.116;2023-08-01T06:20:11;8.87;;;7.00;;
21741;SDS011;11033;47.490;11.116;2023-08-01T06:22:37;9.07;;;7.25;;
21741;SDS011;11033;47.490;11.116;2023-08-01T06:25:02;7.95;;;7.20;;
21741;SDS011;11033;47.490;11.116;2023-08-01T06:27:28;7.40;;;6.68;;
21741;SDS011;11033;47.490;11.116;2023-08-01T06:29:53;8.30;;;7.50;;
21741;SDS011;11033;47.490;11.116;2023-08-01T06:32:18;7.53;;;6.83;;
21741;SDS011;11033;47.490;11.116;2023-08-01T06:34:43;8.23;;;7.43;;
21741;SDS011;11033;47.490;11.116;2023-08-01T06:37:09;8.73;;;7.77;;
21741;SDS011;11033;47.490;11.116;2023-08-01T06:39:35;8.25;;;7.55;;
21741;SDS011;11033;47.490;11.116;2023-08-01T06:42:00;7.27;;;6.60;;
21741;SDS011;11033;47.490;11.116;2023-08-01T06:44:25;8.60;;;6.90;;
21741;SDS011;11033;47.490;11.116;2023-08-01T06:46:50;7.15;;;6.55;;
21741;SDS011;11033;47.490;11.116;2023-08-01T06:49:15;9.20;;;7.37;;
21741;SDS011;11033;47.490;11.116;2023-08-01T06:51:41;7.43;;;6.67;;
21741;SDS011;11033;47.490;11.116;2023-08-01T06:54:07;8.57;;;7.22;;
21741;SDS011;11033;47.490;11.116;2023-08-01T06:56:33;8.80;;;7.50;;
21741;SDS011;11033;47.490;11.116;2023-08-01T06:58:58;10.73;;;7.30;;
21741;SDS011;11033;47.490;11.116;2023-08-01T07:01:23;10.17;;;7.57;;
21741;SDS011;11033;47.490;11.116;2023-08-01T07:03:48;7.43;;;6.60;;
21741;SDS011;11033;47.490;11.116;2023-08-01T07:06:15;8.95;;;7.38;;
21741;SDS011;11033;47.490;11.116;2023-08-01T07:08:41;10.87;;;7.63;;
21741;SDS011;11033;47.490;11.116;2023-08-01T07:11:06;9.33;;;7.23;;
21741;SDS011;11033;47.490;11.116;2023-08-01T07:13:31;7.47;;;6.77;;
21741;SDS011;11033;47.490;11.116;2023-08-01T07:15:56;7.40;;;6.70;;
21741;SDS011;11033;47.490;11.116;2023-08-01T07:18:21;11.50;;;7.70;;
21741;SDS011;11033;47.490;11.116;2023-08-01T07:20:47;7.97;;;7.27;;
21741;SDS011;11033;47.490;11.116;2023-08-01T07:23:12;7.40;;;6.70;;
21741;SDS011;11033;47.490;11.116;2023-08-01T07:25:37;7.53;;;6.83;;
21741;SDS011;11033;47.490;11.116;2023-08-01T07:28:02;8.33;;;7.43;;
21741;SDS011;11033;47.490;11.116;2023-08-01T07:30:27;8.70;;;7.90;;
21741;SDS011;11033;47.490;11.116;2023-08-01T07:32:53;8.47;;;7.77;;
21741;SDS011;11033;47.490;11.116;2023-08-01T07:35:18;10.67;;;7.80;;
21741;SDS011;11033;47.490;11.116;2023-08-01T07:37:43;9.10;;;8.30;;
21741;SDS011;11033;47.490;11.116;2023-08-01T07:40:08;8.80;;;8.00;;
21741;SDS011;11033;47.490;11.116;2023-08-01T07:42:34;8.85;;;7.95;;
21741;SDS011;11033;47.490;11.116;2023-08-01T07:44:59;8.97;;;8.17;;
21741;SDS011;11033;47.490;11.116;2023-08-01T07:47:24;8.80;;;8.10;;
21741;SDS011;11033;47.490;11.116;2023-08-01T07:49:50;10.03;;;9.20;;
21741;SDS011;11033;47.490;11.116;2023-08-01T07:52:15;9.50;;;8.80;;
21741;SDS011;11033;47.490;11.116;2023-08-01T07:54:40;8.98;;;8.18;;
21741;SDS011;11033;47.490;11.116;2023-08-01T07:57:05;10.00;;;9.10;;
21741;SDS011;11033;47.490;11.116;2023-08-01T07:59:31;9.63;;;8.93;;
21741;SDS011;11033;47.490;11.116;2023-08-01T08:01:56;9.20;;;8.50;;
21741;SDS011;11033;47.490;11.116;2023-08-01T08:04:21;10.07;;;9.03;;
21741;SDS011;11033;47.490;11.116;2023-08-01T08:06:46;10.00;;;9.20;;
21741;SDS011;11033;47.490;11.116;2023-08-01T08:09:12;10.18;;;9.32;;
21741;SDS011;11033;47.490;11.116;2023-08-01T08:11:37;10.37;;;9.67;;
21741;SDS011;11033;47.490;11.116;2023-08-01T08:14:02;10.27;;;9.40;;
21741;SDS011;11033;47.490;11.116;2023-08-01T08:16:27;9.87;;;9.17;;
21741;SDS011;11033;47.490;11.116;2023-08-01T08:18:53;11.70;;;10.73;;
21741;SDS011;11033;47.490;11.116;2023-08-01T08:21:18;11.00;;;10.00;;
21741;SDS011;11033;47.490;11.116;2023-08-01T08:23:43;10.63;;;9.80;;
21741;SDS011;11033;47.490;11.116;2023-08-01T08:26:08;9.97;;;9.27;;
21741;SDS011;11033;47.490;11.116;2023-08-01T08:28:33;11.77;;;10.67;;
21741;SDS011;11033;47.490;11.116;2023-08-01T08:30:59;10.50;;;9.73;;
21741;SDS011;11033;47.490;11.116;2023-08-01T08:33:24;11.50;;;10.60;;
21741;SDS011;11033;47.490;11.116;2023-08-01T08:35:50;11.47;;;10.43;;
21741;SDS011;11033;47.490;11.116;2023-08-01T08:38:16;10.70;;;9.90;;
21741;SDS011;11033;47.490;11.116;2023-08-01T08:40:43;10.85;;;10.02;;
21741;SDS011;11033;47.490;11.116;2023-08-01T08:43:13;10.93;;;10.23;;
21741;SDS011;11033;47.490;11.116;2023-08-01T08:45:40;10.27;;;9.57;;
21741;SDS011;11033;47.490;11.116;2023-08-01T08:48:09;11.02;;;10.23;;
21741;SDS011;11033;47.490;11.116;2023-08-01T08:50:35;11.30;;;10.50;;
21741;SDS011;11033;47.490;11.116;2023-08-01T08:53:01;10.30;;;9.50;;
21741;SDS011;11033;47.490;11.116;2023-08-01T08:55:26;11.15;;;9.95;;
21741;SDS011;11033;47.490;11.116;2023-08-01T08:57:52;10.18;;;9.27;;
21741;SDS011;11033;47.490;11.116;2023-08-01T09:00:18;10.95;;;9.93;;
21741;SDS011;11033;47.490;11.116;2023-08-01T09:02:43;10.57;;;9.60;;
21741;SDS011;11033;47.490;11.116;2023-08-01T09:05:08;10.63;;;9.60;;
21741;SDS011;11033;47.490;11.116;2023-08-01T09:07:34;9.37;;;8.73;;
21741;SDS011;11033;47.490;11.116;2023-08-01T09:10:00;11.27;;;9.90;;
21741;SDS011;11033;47.490;11.116;2023-08-01T09:12:25;12.80;;;10.37;;
21741;SDS011;11033;47.490;11.116;2023-08-01T09:14:51;10.90;;;9.90;;
21741;SDS011;11033;47.490;11.116;2023-08-01T09:17:17;12.68;;;10.63;;
21741;SDS011;11033;47.490;11.116;2023-08-01T09:19:43;10.93;;;9.90;;
21741;SDS011;11033;47.490;11.116;2023-08-01T09:22:12;11.55;;;10.38;;
21741;SDS011;11033;47.490;11.116;2023-08-01T09:24:37;13.77;;;11.07;;
21741;SDS011;11033;47.490;11.116;2023-08-01T09:27:03;11.73;;;10.32;;
21741;SDS011;11033;47.490;11.116;2023-08-01T09:29:33;11.80;;;10.80;;
21741;SDS011;11033;47.490;11.116;2023-08-01T09:31:58;11.10;;;10.25;;
21741;SDS011;11033;47.490;11.116;2023-08-01T09:34:24;11.27;;;10.37;;
21741;SDS011;11033;47.490;11.116;2023-08-01T09:36:50;11.30;;;10.40;;
21741;SDS011;11033;47.490;11.116;2023-08-01T09:39:16;10.65;;;9.75;;
21741;SDS011;11033;47.490;11.116;2023-08-01T09:41:41;11.43;;;10.32;;
21741;SDS011;11033;47.490;11.116;2023-08-01T09:44:09;11.37;;;10.47;;
21741;SDS011;11033;47.490;11.116;2023-08-01T09:46:35;12.10;;;11.02;;
21741;SDS011;11033;47.490;11.116;2023-08-01T09:49:10;10.07;;;9.37;;
21741;SDS011;11033;47.490;11.116;2023-08-01T09:51:45;10.40;;;9.70;;
21741;SDS011;11033;47.490;11.116;2023-08-01T09:54:10;10.82;;;9.93;;
21741;SDS011;11033;47.490;11.116;2023-08-01T09:56:36;10.90;;;10.13;;
21741;SDS011;11033;47.490;11.116;2023-08-01T09:59:01;12.10;;;11.20;;
21741;SDS011;11033;47.490;11.116;2023-08-01T10:01:26;11.67;;;10.60;;
21741;SDS011;11033;47.490;11.116;2023-08-01T10:03:53;11.57;;;10.60;;
21741;SDS011;11033;47.490;11.116;2023-08-01T10:08:44;12.05;;;10.90;;
21741;SDS011;11033;47.490;11.116;2023-08-01T10:11:10;11.90;;;10.95;;
21741;SDS011;11033;47.490;11.116;2023-08-01T10:13:36;12.18;;;11.20;;
21741;SDS011;11033;47.490;11.116;2023-08-01T10:16:02;11.57;;;10.77;;
21741;SDS011;11033;47.490;11.116;2023-08-01T10:18:27;12.70;;;11.68;;
21741;SDS011;11033;47.490;11.116;2023-08-01T10:20:53;12.13;;;11.23;;
21741;SDS011;11033;47.490;11.116;2023-08-01T10:23:18;12.07;;;11.17;;
21741;SDS011;11033;47.490;11.116;2023-08-01T10:25:44;11.82;;;10.93;;
21741;SDS011;11033;47.490;11.116;2023-08-01T10:28:10;11.48;;;10.57;;
21741;SDS011;11033;47.490;11.116;2023-08-01T10:30:35;10.90;;;10.20;;
21741;SDS011;11033;47.490;11.116;2023-08-01T10:33:00;10.83;;;10.13;;
21741;SDS011;11033;47.490;11.116;2023-08-01T10:35:35;11.37;;;10.63;;
21741;SDS011;11033;47.490;11.116;2023-08-01T10:38:07;11.65;;;10.82;;
21741;SDS011;11033;47.490;11.116;2023-08-01T10:40:33;11.05;;;10.30;;
21741;SDS011;11033;47.490;11.116;2023-08-01T10:42:58;10.80;;;10.18;;
21741;SDS011;11033;47.490;11.116;2023-08-01T10:45:23;11.13;;;10.40;;
21741;SDS011;11033;47.490;11.116;2023-08-01T10:47:49;11.53;;;10.73;;
21741;SDS011;11033;47.490;11.116;2023-08-01T10:50:15;12.10;;;10.98;;
21741;SDS011;11033;47.490;11.116;2023-08-01T10:52:43;10.90;;;10.15;;
21741;SDS011;11033;47.490;11.116;2023-08-01T10:55:08;9.95;;;9.35;;
21741;SDS011;11033;47.490;11.116;2023-08-01T10:57:35;11.35;;;10.55;;
21741;SDS011;11033;47.490;11.116;2023-08-01T11:00:00;11.77;;;10.98;;
21741;SDS011;11033;47.490;11.116;2023-08-01T11:02:26;12.43;;;11.32;;
21741;SDS011;11033;47.490;11.116;2023-08-01T11:05:01;12.38;;;11.40;;
21741;SDS011;11033;47.490;11.116;2023-08-01T11:07:27;11.23;;;10.48;;
21741;SDS011;11033;47.490;11.116;2023-08-01T11:12:43;10.75;;;10.13;;
21741;SDS011;11033;47.490;11.116;2023-08-01T11:15:09;11.65;;;10.90;;
21741;SDS011;11033;47.490;11.116;2023-08-01T11:17:38;11.13;;;10.43;;
21741;SDS011;11033;47.490;11.116;2023-08-01T11:20:04;11.40;;;10.60;;
21741;SDS011;11033;47.490;11.116;2023-08-01T11:22:30;10.55;;;9.95;;
21741;SDS011;11033;47.490;11.116;2023-08-01T11:24:55;12.13;;;11.13;;
21741;SDS011;11033;47.490;11.116;2023-08-01T11:27:20;11.37;;;10.57;;
21741;SDS011;11033;47.490;11.116;2023-08-01T11:29:46;11.83;;;10.77;;
21741;SDS011;11033;47.490;11.116;2023-08-01T11:32:11;11.77;;;10.87;;
21741;SDS011;11033;47.490;11.116;2023-08-01T11:34:41;11.25;;;10.35;;
21741;SDS011;11033;47.490;11.116;2023-08-01T11:37:08;11.73;;;10.75;;
21741;SDS011;11033;47.490;11.116;2023-08-01T11:39:33;10.93;;;10.03;;
21741;SDS011;11033;47.490;11.116;2023-08-01T11:41:59;10.80;;;10.10;;
21741;SDS011;11033;47.490;11.116;2023-08-01T11:44:25;10.40;;;9.60;;
21741;SDS011;11033;47.490;11.116;2023-08-01T11:46:50;11.27;;;10.43;;
21741;SDS011;11033;47.490;11.116;2023-08-01T11:49:16;10.20;;;9.60;;
21741;SDS011;11033;47.490;11.116;2023-08-01T11:51:42;11.50;;;10.50;;
21741;SDS011;11033;47.490;11.116;2023-08-01T11:54:07;11.65;;;10.75;;
21741;SDS011;11033;47.490;11.116;2023-08-01T11:56:34;12.13;;;11.18;;
21741;SDS011;11033;47.490;11.116;2023-08-01T11:58:59;10.97;;;10.13;;
21741;SDS011;11033;47.490;11.116;2023-08-01T12:01:32;11.57;;;10.73;;
21741;SDS011;11033;47.490;11.116;2023-08-01T12:04:02;10.82;;;9.88;;
21741;SDS011;11033;47.490;11.116;2023-08-01T12:06:30;11.83;;;11.03;;
21741;SDS011;11033;47.490;11.116;2023-08-01T12:09:05;11.10;;;10.25;;
21741;SDS011;11033;47.490;11.116;2023-08-01T12:11:30;11.45;;;10.32;;
21741;SDS011;11033;47.490;11.116;2023-08-01T12:14:05;11.20;;;10.10;;
21741;SDS011;11033;47.490;11.116;2023-08-01T12:16:31;11.52;;;10.40;;
21741;SDS011;11033;47.490;11.116;2023-08-01T12:18:57;11.43;;;10.50;;
21741;SDS011;11033;47.490;11.116;2023-08-01T12:21:22;10.23;;;9.52;;
21741;SDS011;11033;47.490;11.116;2023-08-01T12:23:48;10.73;;;10.03;;
21741;SDS011;11033;47.490;11.116;2023-08-01T12:26:13;10.23;;;9.53;;
21741;SDS011;11033;47.490;11.116;2023-08-01T12:28:38;9.63;;;8.93;;
21741;SDS011;11033;47.490;11.116;2023-08-01T12:31:03;9.87;;;9.13;;
21741;SDS011;11033;47.490;11.116;2023-08-01T12:33:29;9.95;;;9.25;;
21741;SDS011;11033;47.490;11.116;2023-08-01T12:35:54;9.93;;;9.23;;
21741;SDS011;11033;47.490;11.116;2023-08-01T12:38:19;9.07;;;8.47;;
21741;SDS011;11033;47.490;11.116;2023-08-01T12:40:44;10.53;;;9.73;;
21741;SDS011;11033;47.490;11.116;2023-08-01T12:43:09;10.87;;;10.17;;
21741;SDS011;11033;47.490;11.116;2023-08-01T12:45:34;10.07;;;9.37;;
21741;SDS011;11033;47.490;11.116;2023-08-01T12:48:00;10.00;;;9.30;;
21741;SDS011;11033;47.490;11.116;2023-08-01T12:50:25;9.63;;;8.93;;
21741;SDS011;11033;47.490;11.116;2023-08-01T12:52:50;10.90;;;10.10;;
21741;SDS011;11033;47.490;11.116;2023-08-01T12:55:15;9.67;;;8.97;;
21741;SDS011;11033;47.490;11.116;2023-08-01T12:57:40;9.30;;;8.77;;
21741;SDS011;11033;47.490;11.116;2023-08-01T13:00:06;8.98;;;8.45;;
21741;SDS011;11033;47.490;11.116;2023-08-01T13:02:31;9.40;;;8.80;;
21741;SDS011;11033;47.490;11.116;2023-08-01T13:04:57;9.50;;;9.00;;
21741;SDS011;11033;47.490;11.116;2023-08-01T13:07:22;9.45;;;8.85;;
21741;SDS011;11033;47.490;11.116;2023-08-01T13:09:47;8.83;;;8.23;;
21741;SDS011;11033;47.490;11.116;2023-08-01T13:12:12;9.35;;;8.75;;
21741;SDS011;11033;47.490;11.116;2023-08-01T13:14:37;9.27;;;8.70;;
21741;SDS011;11033;47.490;11.116;2023-08-01T13:17:03;9.32;;;8.82;;
21741;SDS011;11033;47.490;11.116;2023-08-01T13:19:28;9.57;;;8.98;;
21741;SDS011;11033;47.490;11.116;2023-08-01T13:21:53;9.00;;;8.53;;
21741;SDS011;11033;47.490;11.116;2023-08-01T13:24:18;9.03;;;8.57;;
21741;SDS011;11033;47.490;11.116;2023-08-01T13:26:43;9.03;;;8.43;;
21741;SDS011;11033;47.490;11.116;2023-08-01T13:29:09;9.77;;;9.17;;
21741;SDS011;11033;47.490;11.116;2023-08-01T13:31:34;9.93;;;9.43;;
21741;SDS011;11033;47.490;11.116;2023-08-01T13:33:59;9.57;;;9.07;;
21741;SDS011;11033;47.490;11.116;2023-08-01T13:36:24;10.97;;;9.73;;
21741;SDS011;11033;47.490;11.116;2023-08-01T13:38:49;9.20;;;8.80;;
21741;SDS011;11033;47.490;11.116;2023-08-01T13:41:15;9.37;;;8.77;;
21741;SDS011;11033;47.490;11.116;2023-08-01T13:43:40;8.73;;;8.33;;
21741;SDS011;11033;47.490;11.116;2023-08-01T13:46:09;9.77;;;9.17;;
21741;SDS011;11033;47.490;11.116;2023-08-01T13:48:34;9.05;;;8.55;;
21741;SDS011;11033;47.490;11.116;2023-08-01T13:50:59;8.80;;;8.40;;
21741;SDS011;11033;47.490;11.116;2023-08-01T13:53:25;8.30;;;7.90;;
21741;SDS011;11033;47.490;11.116;2023-08-01T13:55:50;9.00;;;8.53;;
21741;SDS011;11033;47.490;11.116;2023-08-01T13:58:15;8.93;;;8.33;;
21741;SDS011;11033;47.490;11.116;2023-08-01T14:00:40;8.90;;;8.30;;
21741;SDS011;11033;47.490;11.116;2023-08-01T14:03:05;8.60;;;8.17;;
21741;SDS011;11033;47.490;11.116;2023-08-01T14:05:30;8.83;;;8.03;;
21741;SDS011;11033;47.490;11.116;2023-08-01T14:07:56;8.70;;;8.30;;
21741;SDS011;11033;47.490;11.116;2023-08-01T14:10:21;8.68;;;8.20;;
21741;SDS011;11033;47.490;11.116;2023-08-01T14:12:46;8.87;;;8.40;;
21741;SDS011;11033;47.490;11.116;2023-08-01T14:15:12;9.00;;;8.33;;
21741;SDS011;11033;47.490;11.116;2023-08-01T14:17:38;9.27;;;8.70;;
21741;SDS011;11033;47.490;11.116;2023-08-01T14:20:03;8.60;;;8.20;;
21741;SDS011;11033;47.490;11.116;2023-08-01T14:22:32;8.52;;;8.13;;